createdAt,value
2019-04-04T00:01:06.309Z,8.39
2019-04-04T00:03:34.633Z,8.40
2019-04-04T00:06:02.909Z,8.40
2019-04-04T00:08:32.177Z,8.39
2019-04-04T00:11:00.529Z,8.38
2019-04-04T00:13:28.915Z,8.35
2019-04-04T00:16:00.340Z,8.29
2019-04-04T00:18:28.644Z,8.27
2019-04-04T00:20:56.932Z,8.25
2019-04-04T00:23:25.243Z,8.22
2019-04-04T00:25:53.517Z,8.21
2019-04-04T00:28:21.908Z,8.20
2019-04-04T00:30:50.199Z,8.20
2019-04-04T00:33:18.488Z,8.20
2019-04-04T00:35:46.900Z,8.22
2019-04-04T00:38:15.219Z,8.20
2019-04-04T00:40:43.536Z,8.16
2019-04-04T00:43:11.822Z,8.18
2019-04-04T00:45:40.129Z,8.20
2019-04-04T00:48:08.406Z,8.15
2019-04-04T00:50:37.329Z,8.15
2019-04-04T00:53:05.693Z,8.15
2019-04-04T00:55:34.005Z,8.16
2019-04-04T00:58:02.690Z,8.14
2019-04-04T01:00:31.157Z,8.11
2019-04-04T01:02:59.454Z,8.10
2019-04-04T01:05:27.732Z,8.12
2019-04-04T01:07:56.042Z,8.13
2019-04-04T01:10:24.333Z,8.12
2019-04-04T01:12:52.784Z,8.13
2019-04-04T01:15:21.079Z,8.15
2019-04-04T01:17:49.413Z,8.14
2019-04-04T01:20:20.297Z,8.15
2019-04-04T01:22:48.105Z,8.16
2019-04-04T01:25:16.416Z,8.14
2019-04-04T01:27:45.610Z,8.12
2019-04-04T01:30:13.911Z,8.11
2019-04-04T01:32:42.195Z,8.10
2019-04-04T01:35:10.621Z,8.11
2019-04-04T01:37:38.898Z,8.12
2019-04-04T01:40:07.184Z,8.07
2019-04-04T01:42:37.888Z,8.11
2019-04-04T01:45:07.086Z,8.09
2019-04-04T01:47:35.395Z,8.08
2019-04-04T01:50:03.823Z,8.09
2019-04-04T01:52:32.100Z,8.12
2019-04-04T01:55:03.027Z,8.12
2019-04-04T01:57:30.434Z,8.15
2019-04-04T01:59:58.766Z,8.16
2019-04-04T02:02:27.414Z,8.14
2019-04-04T02:04:57.443Z,8.10
2019-04-04T02:07:27.848Z,8.09
2019-04-04T02:09:56.523Z,8.05
2019-04-04T02:12:24.838Z,8.01
2019-04-04T02:14:53.117Z,7.98
2019-04-04T02:17:22.310Z,7.96
2019-04-04T02:19:51.179Z,7.94
2019-04-04T02:22:19.473Z,7.95
2019-04-04T02:24:47.783Z,7.92
2019-04-04T02:27:18.832Z,7.89
2019-04-04T02:29:47.146Z,7.89
2019-04-04T02:32:17.070Z,7.87
2019-04-04T02:34:45.485Z,7.89
2019-04-04T02:37:13.774Z,7.87
2019-04-04T02:39:42.422Z,7.83
2019-04-04T02:42:10.749Z,7.82
2019-04-04T02:44:39.058Z,7.81
2019-04-04T02:47:07.327Z,7.80
2019-04-04T02:49:35.616Z,7.80
2019-04-04T02:52:03.921Z,7.78
2019-04-04T02:54:32.275Z,7.77
2019-04-04T02:57:00.562Z,7.74
2019-04-04T02:59:28.872Z,7.69
2019-04-04T03:01:57.159Z,7.61
2019-04-04T03:04:25.539Z,7.57
2019-04-04T03:06:57.381Z,7.55
2019-04-04T03:09:23.862Z,7.50
2019-04-04T03:11:54.030Z,7.49
2019-04-04T03:14:22.292Z,7.47
2019-04-04T03:16:50.883Z,7.46
2019-04-04T03:19:19.155Z,7.43
2019-04-04T03:21:47.517Z,7.40
2019-04-04T03:24:15.874Z,7.37
2019-04-04T03:26:44.185Z,7.34
2019-04-04T03:29:12.467Z,7.31
2019-04-04T03:31:40.872Z,7.29
2019-04-04T03:34:12.180Z,7.25
2019-04-04T03:36:39.784Z,7.21
2019-04-04T03:39:08.446Z,7.18
2019-04-04T03:41:36.723Z,7.14
2019-04-04T03:44:05.108Z,7.11
2019-04-04T03:46:38.218Z,7.08
2019-04-04T03:49:03.491Z,7.05
2019-04-04T03:51:32.182Z,7.02
2019-04-04T03:54:02.719Z,7.00
2019-04-04T03:56:38.835Z,6.99
2019-04-04T03:59:01.246Z,6.97
2019-04-04T04:01:29.614Z,6.93
2019-04-04T04:03:57.960Z,6.91
2019-04-04T04:06:27.194Z,6.88
2019-04-04T04:08:55.595Z,6.85
2019-04-04T04:11:23.876Z,6.81
2019-04-04T04:13:52.188Z,6.76
2019-04-04T04:16:21.343Z,6.71
2019-04-04T04:18:54.001Z,6.68
2019-04-04T04:21:19.672Z,6.67
2019-04-04T04:23:49.949Z,6.63
2019-04-04T04:26:18.407Z,6.61
2019-04-04T04:28:46.692Z,6.58
2019-04-04T04:31:15.567Z,6.56
2019-04-04T04:33:44.882Z,6.54
2019-04-04T04:36:15.645Z,6.49
2019-04-04T04:38:43.297Z,6.53
2019-04-04T04:41:12.626Z,6.49
2019-04-04T04:43:41.813Z,6.45
2019-04-04T04:46:10.111Z,6.46
2019-04-04T04:48:38.387Z,6.46
2019-04-04T04:51:06.730Z,6.44
2019-04-04T04:53:35.018Z,6.43
2019-04-04T04:56:03.461Z,6.41
2019-04-04T04:58:31.738Z,6.36
2019-04-04T05:01:00.049Z,6.36
2019-04-04T05:03:28.461Z,6.32
2019-04-04T05:06:00.433Z,6.32
2019-04-04T05:08:26.815Z,6.28
2019-04-04T05:10:55.814Z,6.28
2019-04-04T05:13:26.117Z,6.27
2019-04-04T05:15:54.482Z,6.24
2019-04-04T05:18:23.457Z,6.24
2019-04-04T05:20:51.752Z,6.19
2019-04-04T05:23:20.046Z,6.20
2019-04-04T05:25:53.696Z,6.18
2019-04-04T05:28:18.668Z,6.18
2019-04-04T05:30:47.788Z,6.17
2019-04-04T05:33:16.313Z,6.16
2019-04-04T05:35:45.312Z,6.16
2019-04-04T05:38:13.589Z,6.18
2019-04-04T05:40:41.923Z,6.18
2019-04-04T05:43:10.223Z,6.20
2019-04-04T05:45:38.495Z,6.20
2019-04-04T05:48:06.814Z,6.21
2019-04-04T05:50:35.124Z,6.21
2019-04-04T05:53:04.195Z,6.28
2019-04-04T05:55:33.219Z,6.28
2019-04-04T05:58:02.113Z,6.25
2019-04-04T06:00:30.433Z,6.31
2019-04-04T06:02:58.768Z,6.33
2019-04-04T06:05:27.816Z,6.35
2019-04-04T06:07:56.331Z,6.42
2019-04-04T06:10:24.621Z,6.52
2019-04-04T06:12:56.266Z,6.52
2019-04-04T06:15:25.622Z,6.56
2019-04-04T06:17:53.983Z,6.55
2019-04-04T06:20:23.165Z,6.59
2019-04-04T06:22:52.017Z,6.55
2019-04-04T06:25:20.888Z,6.62
2019-04-04T06:27:49.183Z,6.65
2019-04-04T06:30:18.175Z,6.68
2019-04-04T06:32:47.573Z,6.73
2019-04-04T06:35:16.172Z,6.75
2019-04-04T06:37:46.223Z,6.76
2019-04-04T06:40:16.288Z,6.73
2019-04-04T06:42:44.742Z,6.73
2019-04-04T06:45:15.244Z,6.78
2019-04-04T06:47:43.114Z,6.82
2019-04-04T06:50:11.418Z,6.85
2019-04-04T06:52:39.729Z,6.88
2019-04-04T06:55:08.618Z,6.91
2019-04-04T06:57:37.506Z,6.94
2019-04-04T07:00:09.067Z,6.99
2019-04-04T07:02:37.444Z,7.00
2019-04-04T07:05:07.134Z,6.98
2019-04-04T07:07:35.618Z,7.01
2019-04-04T07:10:05.569Z,7.02
2019-04-04T07:12:33.858Z,7.03
2019-04-04T07:15:02.160Z,7.06
2019-04-04T07:17:30.502Z,7.08
2019-04-04T07:19:58.822Z,7.09
2019-04-04T07:22:29.374Z,7.05
2019-04-04T07:24:57.682Z,7.07
2019-04-04T07:27:25.969Z,7.08
2019-04-04T07:29:56.898Z,7.09
2019-04-04T07:32:25.686Z,7.12
2019-04-04T07:34:53.972Z,7.16
2019-04-04T07:37:22.767Z,7.19
2019-04-04T07:39:51.128Z,7.22
2019-04-04T07:42:19.440Z,7.25
2019-04-04T07:44:50.756Z,7.26
2019-04-04T07:47:19.045Z,7.26
2019-04-04T07:49:47.367Z,7.27
2019-04-04T07:52:17.210Z,7.27
2019-04-04T07:54:45.836Z,7.28
2019-04-04T07:57:14.142Z,7.28
2019-04-04T07:59:42.428Z,7.25
2019-04-04T08:02:10.815Z,7.22
2019-04-04T08:04:39.135Z,7.23
2019-04-04T08:07:07.411Z,7.22
2019-04-04T08:09:35.730Z,7.23
2019-04-04T08:12:04.090Z,7.26
2019-04-04T08:14:32.816Z,7.27
2019-04-04T08:17:01.105Z,7.30
2019-04-04T08:19:29.470Z,7.30
2019-04-04T08:21:57.844Z,7.33
2019-04-04T08:24:26.202Z,7.34
2019-04-04T08:26:54.556Z,7.36
2019-04-04T08:29:22.914Z,7.39
2019-04-04T08:31:51.231Z,7.41
2019-04-04T08:34:19.595Z,7.44
2019-04-04T08:36:47.917Z,7.45
2019-04-04T08:39:16.202Z,7.47
2019-04-04T08:41:44.536Z,7.51
2019-04-04T08:44:12.862Z,7.54
2019-04-04T08:46:41.217Z,7.58
2019-04-04T08:49:09.527Z,7.60
2019-04-04T08:51:37.812Z,7.66
2019-04-04T08:54:06.120Z,7.67
2019-04-04T08:56:34.401Z,7.71
2019-04-04T08:59:02.724Z,7.71
2019-04-04T09:01:31.032Z,7.72
2019-04-04T09:03:59.318Z,7.72
2019-04-04T09:06:27.629Z,7.74
2019-04-04T09:08:55.911Z,7.76
2019-04-04T09:11:24.245Z,7.80
2019-04-04T09:13:53.872Z,7.80
2019-04-04T09:16:22.177Z,7.78
2019-04-04T09:18:50.489Z,7.79
2019-04-04T09:21:19.339Z,7.82
2019-04-04T09:23:48.322Z,7.84
2019-04-04T09:26:16.636Z,7.83
2019-04-04T09:28:44.917Z,7.84
2019-04-04T09:31:13.233Z,7.88
2019-04-04T09:33:41.610Z,7.89
2019-04-04T09:36:10.659Z,7.91
2019-04-04T09:38:39.033Z,7.93
2019-04-04T09:41:07.488Z,7.94
2019-04-04T09:43:35.781Z,7.96
2019-04-04T09:46:04.078Z,8.01
2019-04-04T09:48:33.149Z,8.03
2019-04-04T09:51:01.431Z,8.03
2019-04-04T09:53:30.035Z,8.01
2019-04-04T09:56:01.039Z,8.04
2019-04-04T09:58:29.343Z,8.07
2019-04-04T10:00:57.735Z,8.09
2019-04-04T10:03:26.045Z,8.12
2019-04-04T10:05:54.398Z,8.15
2019-04-04T10:08:23.688Z,8.17
2019-04-04T10:10:52.378Z,8.20
2019-04-04T10:13:20.653Z,8.21
2019-04-04T10:15:48.962Z,8.24
2019-04-04T10:18:17.265Z,8.27
2019-04-04T10:20:45.567Z,8.28
2019-04-04T10:23:13.893Z,8.27
2019-04-04T10:25:42.763Z,8.29
2019-04-04T10:28:11.442Z,8.30
2019-04-04T10:30:39.721Z,8.34
2019-04-04T10:33:08.029Z,8.35
2019-04-04T10:35:36.318Z,8.37
2019-04-04T10:38:04.815Z,8.38
2019-04-04T10:40:33.093Z,8.40
2019-04-04T10:43:01.372Z,8.45
2019-04-04T10:45:29.669Z,8.50
2019-04-04T10:47:57.963Z,8.54
2019-04-04T10:50:26.338Z,8.59
2019-04-04T10:52:54.627Z,8.61
2019-04-04T10:55:22.928Z,8.65
2019-04-04T10:57:51.356Z,8.70
2019-04-04T11:00:19.644Z,8.74
2019-04-04T11:02:47.930Z,8.77
2019-04-04T11:05:16.230Z,8.77
2019-04-04T11:07:44.533Z,8.79
2019-04-04T11:10:12.807Z,8.82
2019-04-04T11:12:41.108Z,8.87
2019-04-04T11:15:09.388Z,8.92
2019-04-04T11:17:37.999Z,8.95
2019-04-04T11:20:06.867Z,8.96
2019-04-04T11:22:35.171Z,8.96
2019-04-04T11:25:03.486Z,8.95
2019-04-04T11:27:31.772Z,8.95
2019-04-04T11:30:00.255Z,8.94
2019-04-04T11:32:28.670Z,8.94
2019-04-04T11:34:56.958Z,8.92
2019-04-04T11:37:25.260Z,8.93
2019-04-04T11:39:54.985Z,8.94
2019-04-04T11:42:23.614Z,8.95
2019-04-04T11:44:51.884Z,8.96
2019-04-04T11:47:20.232Z,8.97
2019-04-04T11:49:48.500Z,8.94
2019-04-04T11:52:16.779Z,8.93
2019-04-04T11:55:01.291Z,8.96
2019-04-04T11:57:29.646Z,8.99
2019-04-04T11:59:58.632Z,9.01
2019-04-04T12:02:28.281Z,9.01
2019-04-04T12:04:57.952Z,8.99
2019-04-04T12:07:26.340Z,9.00
2019-04-04T12:10:06.726Z,9.03
2019-04-04T12:12:24.775Z,9.10
2019-04-04T12:14:53.049Z,9.16
2019-04-04T12:17:21.456Z,9.11
2019-04-04T12:19:49.728Z,9.08
2019-04-04T12:22:18.010Z,9.07
2019-04-04T12:24:46.336Z,9.09
2019-04-04T12:27:14.598Z,9.14
2019-04-04T12:29:43.002Z,9.22
2019-04-04T12:32:11.287Z,9.22
2019-04-04T12:34:39.579Z,9.27
2019-04-04T12:37:07.885Z,9.33
2019-04-04T12:39:36.187Z,9.35
2019-04-04T12:42:04.492Z,9.40
2019-04-04T12:44:32.865Z,9.43
2019-04-04T12:47:01.166Z,9.49
2019-04-04T12:49:29.749Z,9.45
2019-04-04T12:51:58.163Z,9.35
2019-04-04T12:54:26.443Z,9.32
2019-04-04T12:56:54.713Z,9.33
2019-04-04T12:59:23.026Z,9.38
2019-04-04T13:01:51.319Z,9.43
2019-04-04T13:04:30.652Z,9.38
2019-04-04T13:06:49.683Z,9.35
2019-04-04T13:09:18.133Z,9.34
2019-04-04T13:11:46.454Z,9.32
2019-04-04T13:14:14.766Z,9.31
2019-04-04T13:16:43.060Z,9.29
2019-04-04T13:19:11.472Z,9.24
2019-04-04T13:21:40.948Z,9.20
2019-04-04T13:24:09.228Z,9.11
2019-04-04T13:26:37.529Z,9.17
2019-04-04T13:29:05.809Z,9.17
2019-04-04T13:31:34.128Z,9.17
2019-04-04T13:34:02.402Z,9.14
2019-04-04T13:36:30.719Z,9.11
2019-04-04T13:38:58.997Z,9.13
2019-04-04T13:41:27.308Z,9.13
2019-04-04T13:43:56.153Z,9.17
2019-04-04T13:46:25.915Z,9.17
2019-04-04T13:48:55.209Z,9.17
2019-04-04T13:51:25.519Z,9.16
2019-04-04T13:53:53.516Z,9.16
2019-04-04T13:56:21.796Z,9.19
2019-04-04T13:58:50.091Z,9.24
2019-04-04T14:01:18.365Z,9.22
2019-04-04T14:03:46.674Z,9.21
2019-04-04T14:06:14.978Z,9.24
2019-04-04T14:08:45.708Z,9.24
2019-04-04T14:11:13.274Z,9.23
2019-04-04T14:13:41.567Z,9.25
2019-04-04T14:16:09.857Z,9.19
2019-04-04T14:18:40.087Z,9.14
2019-04-04T14:21:08.262Z,9.15
2019-04-04T14:23:36.563Z,9.16
2019-04-04T14:26:08.224Z,9.18
2019-04-04T14:28:36.484Z,9.18
2019-04-04T14:31:08.141Z,9.19
2019-04-04T14:33:37.927Z,9.18
2019-04-04T14:36:06.324Z,9.14
2019-04-04T14:38:34.716Z,9.09
2019-04-04T14:41:11.030Z,9.10
2019-04-04T14:43:32.966Z,9.05
2019-04-04T14:46:02.899Z,9.02
2019-04-04T14:48:31.204Z,9.02
2019-04-04T14:50:59.650Z,9.02
2019-04-04T14:53:27.910Z,9.03
2019-04-04T14:55:56.194Z,9.09
2019-04-04T14:58:25.365Z,9.11
2019-04-04T15:00:53.650Z,9.09
2019-04-04T15:03:22.714Z,9.03
2019-04-04T15:05:51.065Z,9.02
2019-04-04T15:08:19.364Z,9.02
2019-04-04T15:10:47.677Z,8.97
2019-04-04T15:13:16.052Z,8.92
2019-04-04T15:16:12.573Z,8.95
2019-04-04T15:18:42.737Z,8.98
2019-04-04T15:21:11.061Z,9.00
2019-04-04T15:23:39.332Z,8.96
2019-04-04T15:26:09.787Z,8.95
2019-04-04T15:28:37.640Z,8.94
2019-04-04T15:31:06.367Z,8.91
2019-04-04T15:33:34.649Z,8.88
2019-04-04T15:36:03.035Z,8.79
2019-04-04T15:38:31.351Z,8.67
2019-04-04T15:40:59.706Z,8.65
2019-04-04T15:43:27.971Z,8.54
2019-04-04T15:45:56.253Z,8.49
2019-04-04T15:48:24.578Z,8.52
2019-04-04T15:50:52.871Z,8.49
2019-04-04T15:53:21.153Z,8.50
2019-04-04T15:55:49.458Z,8.47
2019-04-04T15:58:17.747Z,8.44
2019-04-04T16:00:46.151Z,8.44
2019-04-04T16:03:17.789Z,8.45
2019-04-04T16:05:46.762Z,8.44
2019-04-04T16:08:15.071Z,8.42
2019-04-04T16:10:43.352Z,8.39
2019-04-04T16:13:11.658Z,8.41
2019-04-04T16:15:39.953Z,8.37
2019-04-04T16:18:08.295Z,8.38
2019-04-04T16:20:36.579Z,8.39
2019-04-04T16:23:04.858Z,8.38
2019-04-04T16:25:33.171Z,8.36
2019-04-04T16:28:02.027Z,8.31
2019-04-04T16:30:30.330Z,8.32
2019-04-04T16:32:58.675Z,8.33
2019-04-04T16:35:27.008Z,8.34
2019-04-04T16:37:55.289Z,8.35
2019-04-04T16:40:23.577Z,8.33
2019-04-04T16:42:51.884Z,8.29
2019-04-04T16:45:20.172Z,8.28
2019-04-04T16:47:48.956Z,8.22
2019-04-04T16:50:17.240Z,8.21
2019-04-04T16:52:45.562Z,8.21
2019-04-04T16:55:13.839Z,8.22
2019-04-04T16:57:43.540Z,8.22
2019-04-04T17:00:12.806Z,8.20
2019-04-04T17:02:41.211Z,8.18
2019-04-04T17:05:11.051Z,8.17
2019-04-04T17:07:39.718Z,8.21
2019-04-04T17:10:08.268Z,8.20
2019-04-04T17:12:37.254Z,8.20
2019-04-04T17:15:07.254Z,8.20
2019-04-04T17:17:35.622Z,8.20
2019-04-04T17:20:06.654Z,8.21
2019-04-04T17:22:35.035Z,8.20
2019-04-04T17:25:03.383Z,8.21
2019-04-04T17:27:31.668Z,8.20
2019-04-04T17:30:00.286Z,8.19
2019-04-04T17:32:29.518Z,8.20
2019-04-04T17:34:58.079Z,8.18
2019-04-04T17:37:27.107Z,8.15
2019-04-04T17:39:55.767Z,8.14
2019-04-04T17:42:30.221Z,8.15
2019-04-04T17:44:54.877Z,8.14
2019-04-04T17:47:23.878Z,8.16
2019-04-04T17:49:52.509Z,8.15
2019-04-04T17:52:21.002Z,8.16
2019-04-04T17:54:49.957Z,8.16
2019-04-04T17:57:21.321Z,8.19
2019-04-04T17:59:49.701Z,8.20
2019-04-04T18:02:18.349Z,8.19
2019-04-04T18:04:48.474Z,8.19
2019-04-04T18:07:16.678Z,8.20
2019-04-04T18:09:45.922Z,8.19
2019-04-04T18:12:16.792Z,8.19
2019-04-04T18:14:44.451Z,8.16
2019-04-04T18:17:12.927Z,8.11
2019-04-04T18:19:41.572Z,8.11
2019-04-04T18:22:10.141Z,8.09
2019-04-04T18:24:38.440Z,8.09
2019-04-04T18:27:07.154Z,8.09
2019-04-04T18:29:35.468Z,8.06
2019-04-04T18:32:03.866Z,8.04
2019-04-04T18:34:32.686Z,8.03
2019-04-04T18:37:01.472Z,8.01
2019-04-04T18:39:29.787Z,8.00
2019-04-04T18:41:58.073Z,7.98
2019-04-04T18:44:26.429Z,7.98
2019-04-04T18:46:54.713Z,7.98
2019-04-04T18:49:23.080Z,7.99
2019-04-04T18:51:51.409Z,8.01
2019-04-04T18:54:19.691Z,7.98
2019-04-04T18:56:48.012Z,7.95
2019-04-04T18:59:16.325Z,7.91
2019-04-04T19:01:45.134Z,7.89
2019-04-04T19:04:13.442Z,7.87
2019-04-04T19:06:42.148Z,7.84
2019-04-04T19:09:15.045Z,7.82
2019-04-04T19:11:42.164Z,7.80
2019-04-04T19:14:10.590Z,7.81
2019-04-04T19:16:38.875Z,7.79
2019-04-04T19:19:07.235Z,7.77
2019-04-04T19:21:35.637Z,7.76
2019-04-04T19:24:03.995Z,7.75
2019-04-04T19:26:32.465Z,7.75
2019-04-04T19:29:03.021Z,7.74
2019-04-04T19:31:31.305Z,7.74
2019-04-04T19:33:59.596Z,7.75
2019-04-04T19:36:27.914Z,7.75
2019-04-04T19:38:56.229Z,7.75
2019-04-04T19:41:24.541Z,7.78
2019-04-04T19:43:52.831Z,7.75
2019-04-04T19:46:21.290Z,7.72
2019-04-04T19:48:49.579Z,7.71
2019-04-04T19:51:17.878Z,7.70
2019-04-04T19:53:46.187Z,7.70
2019-04-04T19:56:14.718Z,7.72
2019-04-04T19:58:43.004Z,7.71
2019-04-04T20:01:11.292Z,7.72
2019-04-04T20:03:39.801Z,7.70
2019-04-04T20:06:08.081Z,7.71
2019-04-04T20:08:36.361Z,7.73
2019-04-04T20:11:04.679Z,7.73
2019-04-04T20:13:33.043Z,7.74
2019-04-04T20:16:01.508Z,7.69
2019-04-04T20:18:29.791Z,7.68
2019-04-04T20:20:58.441Z,7.67
2019-04-04T20:23:26.724Z,7.67
2019-04-04T20:25:55.075Z,7.64
2019-04-04T20:28:23.366Z,7.59
2019-04-04T20:30:51.651Z,7.57
2019-04-04T20:33:20.724Z,7.57
2019-04-04T20:35:49.042Z,7.58
2019-04-04T20:38:17.388Z,7.56
2019-04-04T20:40:45.724Z,7.56
2019-04-04T20:43:14.016Z,7.60
2019-04-04T20:45:42.382Z,7.57
2019-04-04T20:48:10.851Z,7.55
2019-04-04T20:50:39.149Z,7.54
2019-04-04T20:53:07.435Z,7.52
2019-04-04T20:55:35.765Z,7.52
2019-04-04T20:58:04.044Z,7.51
2019-04-04T21:00:32.426Z,7.51
2019-04-04T21:03:00.991Z,7.50
2019-04-04T21:05:29.363Z,7.47
2019-04-04T21:07:57.664Z,7.48
2019-04-04T21:10:25.955Z,7.52
2019-04-04T21:12:54.271Z,7.49
2019-04-04T21:15:22.602Z,7.45
2019-04-04T21:17:50.908Z,7.42
2019-04-04T21:20:19.963Z,7.42
2019-04-04T21:22:48.369Z,7.40
2019-04-04T21:25:16.680Z,7.39
2019-04-04T21:27:44.993Z,7.41
2019-04-04T21:30:13.304Z,7.39
2019-04-04T21:32:41.583Z,7.38
2019-04-04T21:35:09.878Z,7.36
2019-04-04T21:37:38.192Z,7.36
2019-04-04T21:40:06.478Z,7.37
2019-04-04T21:42:35.465Z,7.37
2019-04-04T21:45:05.491Z,7.39
2019-04-04T21:47:33.776Z,7.40
2019-04-04T21:50:02.093Z,7.40
2019-04-04T21:52:30.574Z,7.38
2019-04-04T21:54:58.866Z,7.34
2019-04-04T21:57:27.727Z,7.33
2019-04-04T21:59:56.043Z,7.30
2019-04-04T22:02:24.325Z,7.22
2019-04-04T22:04:52.750Z,7.24
2019-04-04T22:07:21.038Z,7.26
2019-04-04T22:09:49.568Z,7.26
2019-04-04T22:12:17.922Z,7.25
2019-04-04T22:14:46.305Z,7.26
2019-04-04T22:17:14.587Z,7.27
2019-04-04T22:19:42.949Z,7.26
2019-04-04T22:22:11.256Z,7.26
2019-04-04T22:24:39.589Z,7.27
2019-04-04T22:27:07.877Z,7.26
2019-04-04T22:29:36.189Z,7.26
2019-04-04T22:32:04.472Z,7.27
2019-04-04T22:34:33.450Z,7.27
2019-04-04T22:37:01.794Z,7.26
2019-04-04T22:39:30.078Z,7.22
2019-04-04T22:41:58.371Z,7.21
2019-04-04T22:44:34.541Z,7.23
2019-04-04T22:46:56.693Z,7.25
2019-04-04T22:49:25.081Z,7.26
2019-04-04T22:51:53.374Z,7.27
2019-04-04T22:54:21.687Z,7.26
2019-04-04T22:56:49.964Z,7.27
2019-04-04T22:59:18.283Z,7.24
2019-04-04T23:01:46.574Z,7.23
2019-04-04T23:04:16.945Z,7.22
2019-04-04T23:06:45.323Z,7.20
2019-04-04T23:09:13.642Z,7.21
2019-04-04T23:11:42.016Z,7.21
2019-04-04T23:14:10.318Z,7.21
2019-04-04T23:16:38.609Z,7.16
2019-04-04T23:19:06.920Z,7.14
2019-04-04T23:21:35.216Z,7.13
2019-04-04T23:24:03.592Z,7.15
2019-04-04T23:26:31.874Z,7.15
2019-04-04T23:29:00.831Z,7.15
2019-04-04T23:31:29.140Z,7.16
2019-04-04T23:33:57.434Z,7.16
2019-04-04T23:36:34.975Z,7.13
2019-04-04T23:38:55.853Z,7.10
2019-04-04T23:41:24.146Z,7.11
2019-04-04T23:43:52.430Z,7.12
2019-04-04T23:46:21.012Z,7.11
2019-04-04T23:48:49.299Z,7.12
2019-04-04T23:51:17.679Z,7.13
2019-04-04T23:53:45.974Z,7.12
2019-04-04T23:56:14.286Z,7.09
2019-04-04T23:58:42.603Z,7.08
